Time;durP1;ratioP1;P1;durP2;ratioP2;P2;SDS_P1;SDS_P2;PMS_P1;PMS_P2;Temp;Humidity;BMP_temperature;BMP_pressure;BME280_temperature;BME280_humidity;BME280_pressure;Samples;Min_cycle;Max_cycle;Signal;HPM_P1;HPM_P2
2022/12/22 03:27:35;;;;;;;1.65;1.00;;;;;;;;;;5052633;28;20799;-82
2022/12/22 03:30:02;;;;;;;0.80;0.80;;;;;;;;;;5053003;28;20428;-82
2022/12/22 03:32:28;;;;;;;1.20;0.98;;;;;;;;;;5054022;28;20405;-82
2022/12/22 03:34:54;;;;;;;1.33;1.23;;;;;;;;;;5053999;28;20467;-82
2022/12/22 03:37:19;;;;;;;1.40;1.10;;;;;;;;;;5053986;28;21053;-82
2022/12/22 03:39:45;;;;;;;1.60;1.17;;;;;;;;;;5053802;28;20544;-82
2022/12/22 03:47:41;;;;;;;1.13;1.00;;;;;;;;;;5053972;28;20439;-82
2022/12/22 03:50:07;;;;;;;1.58;1.40;;;;;;;;;;5053742;28;20847;-83
2022/12/22 03:52:33;;;;;;;1.33;1.10;;;;;;;;;;5053772;28;20816;-82
2022/12/22 03:54:59;;;;;;;1.30;1.20;;;;;;;;;;5029479;28;20418;-82
2022/12/22 03:57:25;;;;;;;2.00;1.20;;;;;;;;;;5049818;28;20428;-82
2022/12/22 03:59:51;;;;;;;1.10;1.00;;;;;;;;;;5053533;28;20393;-82
2022/12/22 04:02:17;;;;;;;1.10;1.00;;;;;;;;;;5053506;28;20378;-82
2022/12/22 04:04:43;;;;;;;1.30;1.20;;;;;;;;;;5053545;28;20389;-83
2022/12/22 04:07:09;;;;;;;1.20;1.10;;;;;;;;;;5053507;28;20408;-83
2022/12/22 04:09:35;;;;;;;1.10;1.00;;;;;;;;;;5048727;28;20390;-83
2022/12/22 04:14:45;;;;;;;1.13;0.93;;;;;;;;;;5053402;28;20397;-82
2022/12/22 04:17:11;;;;;;;3.28;1.10;;;;;;;;;;5053265;28;20874;-82
2022/12/22 04:19:37;;;;;;;1.17;1.00;;;;;;;;;;5052656;28;20385;-82
2022/12/22 04:22:04;;;;;;;2.65;1.20;;;;;;;;;;5053260;28;20377;-83
2022/12/22 04:24:30;;;;;;;1.10;1.00;;;;;;;;;;5053112;28;20385;-82
2022/12/22 04:26:56;;;;;;;1.20;1.10;;;;;;;;;;5053141;28;20382;-82
2022/12/22 04:29:21;;;;;;;1.30;1.10;;;;;;;;;;5052527;28;20921;-82
2022/12/22 04:31:47;;;;;;;1.20;1.10;;;;;;;;;;5052921;28;20409;-82
2022/12/22 04:34:13;;;;;;;1.30;1.00;;;;;;;;;;5052982;28;20389;-82
2022/12/22 04:36:39;;;;;;;2.42;1.00;;;;;;;;;;5052758;28;20428;-82
2022/12/22 04:39:05;;;;;;;1.30;1.00;;;;;;;;;;5052819;28;20397;-82
2022/12/22 04:41:31;;;;;;;1.27;1.00;;;;;;;;;;5052775;28;20374;-82
2022/12/22 04:43:57;;;;;;;1.27;0.95;;;;;;;;;;5052703;28;20762;-82
2022/12/22 04:46:23;;;;;;;1.33;0.95;;;;;;;;;;5052743;28;20392;-82
2022/12/22 04:48:49;;;;;;;1.10;1.00;;;;;;;;;;5052571;28;20381;-82
2022/12/22 04:51:15;;;;;;;1.60;1.10;;;;;;;;;;5052660;28;20385;-82
2022/12/22 04:53:41;;;;;;;1.90;1.15;;;;;;;;;;5052474;28;20397;-82
2022/12/22 04:56:08;;;;;;;1.40;1.02;;;;;;;;;;5052406;28;20412;-82
2022/12/22 04:58:34;;;;;;;2.70;1.00;;;;;;;;;;5052193;28;20404;-82
2022/12/22 05:01:14;;;;;;;1.30;1.17;;;;;;;;;;5052114;28;20459;-82
2022/12/22 05:03:40;;;;;;;1.90;1.00;;;;;;;;;;5052421;28;20884;-82
2022/12/22 05:06:06;;;;;;;3.63;1.20;;;;;;;;;;5046425;28;20385;-82
2022/12/22 05:08:32;;;;;;;1.97;1.30;;;;;;;;;;5052335;28;20815;-82
2022/12/22 05:10:58;;;;;;;1.33;1.20;;;;;;;;;;5052106;28;20409;-82
2022/12/22 05:13:24;;;;;;;1.92;1.10;;;;;;;;;;5034300;28;20397;-82
2022/12/22 05:15:50;;;;;;;2.58;1.40;;;;;;;;;;5041821;28;20415;-82
2022/12/22 05:18:16;;;;;;;1.63;1.20;;;;;;;;;;5049140;28;20432;-82
2022/12/22 05:20:42;;;;;;;2.50;1.30;;;;;;;;;;5034252;28;20403;-82
2022/12/22 05:23:08;;;;;;;1.83;1.20;;;;;;;;;;5052000;28;20385;-82
2022/12/22 05:25:34;;;;;;;2.03;1.40;;;;;;;;;;5052109;28;20485;-82
2022/12/22 05:28:00;;;;;;;3.97;1.43;;;;;;;;;;5052006;28;20535;-82
2022/12/22 05:30:26;;;;;;;3.33;1.60;;;;;;;;;;5048053;28;20389;-83
2022/12/22 05:32:52;;;;;;;3.33;1.60;;;;;;;;;;5051852;28;20377;-82
2022/12/22 05:35:18;;;;;;;3.40;1.40;;;;;;;;;;5051900;28;20408;-82
2022/12/22 05:37:44;;;;;;;2.83;1.58;;;;;;;;;;5051880;28;20404;-82
2022/12/22 05:40:10;;;;;;;3.08;1.38;;;;;;;;;;5050989;28;20747;-83
2022/12/22 05:42:36;;;;;;;2.35;1.40;;;;;;;;;;5051760;28;20383;-82
2022/12/22 05:45:02;;;;;;;2.65;1.30;;;;;;;;;;5051751;28;20488;-82
2022/12/22 05:47:28;;;;;;;1.47;1.10;;;;;;;;;;5051602;28;20468;-82
2022/12/22 05:49:54;;;;;;;1.67;1.10;;;;;;;;;;5051696;28;20373;-82
2022/12/22 05:52:20;;;;;;;1.60;1.25;;;;;;;;;;5051612;28;20808;-82
2022/12/22 05:54:46;;;;;;;3.60;1.27;;;;;;;;;;5051676;28;20428;-83
2022/12/22 05:57:12;;;;;;;2.17;1.30;;;;;;;;;;5051516;28;20413;-82
2022/12/22 05:59:38;;;;;;;2.25;1.30;;;;;;;;;;5048240;28;20484;-82
2022/12/22 06:02:04;;;;;;;3.90;1.50;;;;;;;;;;5038010;28;20383;-82
2022/12/22 06:04:30;;;;;;;3.13;1.10;;;;;;;;;;5050059;28;20381;-82
2022/12/22 06:06:56;;;;;;;3.33;1.10;;;;;;;;;;5051617;28;20392;-82
2022/12/22 06:09:22;;;;;;;2.22;1.20;;;;;;;;;;5051404;28;20393;-83
2022/12/22 06:11:48;;;;;;;2.25;0.93;;;;;;;;;;5051530;28;20472;-82
2022/12/22 06:14:14;;;;;;;2.33;0.98;;;;;;;;;;5051442;28;20748;-83
2022/12/22 06:16:40;;;;;;;1.70;1.00;;;;;;;;;;5051393;28;20419;-82
2022/12/22 06:19:06;;;;;;;2.03;1.10;;;;;;;;;;5048175;28;20373;-82
2022/12/22 06:21:32;;;;;;;1.95;1.05;;;;;;;;;;5051333;28;20927;-82
2022/12/22 06:23:58;;;;;;;4.18;1.48;;;;;;;;;;5051428;28;20382;-83
2022/12/22 06:26:24;;;;;;;2.38;1.30;;;;;;;;;;5051416;28;20381;-83
2022/12/22 06:28:50;;;;;;;2.72;1.50;;;;;;;;;;5047003;28;20919;-82
2022/12/22 06:31:16;;;;;;;2.35;1.25;;;;;;;;;;5037479;28;20414;-82
2022/12/22 06:33:42;;;;;;;1.50;0.98;;;;;;;;;;5050084;28;20394;-82
2022/12/22 06:36:08;;;;;;;3.88;1.33;;;;;;;;;;5049287;28;20401;-83
2022/12/22 06:38:34;;;;;;;3.78;1.20;;;;;;;;;;5049206;28;20384;-82
2022/12/22 06:41:00;;;;;;;1.90;0.90;;;;;;;;;;5051116;28;20381;-82
2022/12/22 06:43:26;;;;;;;2.07;1.00;;;;;;;;;;5040161;28;20893;-83
2022/12/22 06:45:52;;;;;;;2.40;1.15;;;;;;;;;;5050399;28;20393;-83
2022/12/22 06:48:19;;;;;;;4.60;1.43;;;;;;;;;;5051221;28;20374;-83
2022/12/22 06:50:45;;;;;;;3.00;1.20;;;;;;;;;;5044265;28;20434;-83
2022/12/22 06:53:11;;;;;;;2.87;1.20;;;;;;;;;;5044728;28;20417;-81
2022/12/22 06:55:37;;;;;;;3.03;1.20;;;;;;;;;;5052162;28;20409;-83
2022/12/22 06:58:04;;;;;;;2.03;1.20;;;;;;;;;;5053373;28;20404;-83
2022/12/22 07:00:30;;;;;;;3.70;1.20;;;;;;;;;;5044094;28;20418;-83
2022/12/22 07:02:56;;;;;;;4.13;1.50;;;;;;;;;;5047663;28;20473;-84
2022/12/22 07:05:25;;;;;;;4.60;1.30;;;;;;;;;;5033156;28;20458;-83
2022/12/22 07:07:52;;;;;;;2.65;1.20;;;;;;;;;;5038849;28;20389;-83
2022/12/22 07:10:18;;;;;;;3.40;1.50;;;;;;;;;;5054484;28;20389;-86
2022/12/22 07:12:44;;;;;;;2.78;1.23;;;;;;;;;;5053069;28;20378;-85
2022/12/22 07:15:10;;;;;;;2.95;1.30;;;;;;;;;;5044491;28;20401;-84
2022/12/22 07:17:36;;;;;;;2.97;1.40;;;;;;;;;;5054393;28;20444;-83
2022/12/22 07:20:02;;;;;;;3.00;1.20;;;;;;;;;;5054314;28;20785;-84
2022/12/22 07:22:28;;;;;;;2.97;1.33;;;;;;;;;;5033702;28;20745;-84
2022/12/22 07:24:54;;;;;;;4.30;1.50;;;;;;;;;;5045365;28;20389;-83
2022/12/22 07:27:20;;;;;;;4.95;1.58;;;;;;;;;;5050193;28;20402;-84
2022/12/22 07:29:46;;;;;;;5.00;1.50;;;;;;;;;;5037743;28;20390;-83
2022/12/22 07:32:12;;;;;;;4.55;1.63;;;;;;;;;;5028605;28;20407;-84
2022/12/22 07:34:38;;;;;;;4.63;1.63;;;;;;;;;;5034997;28;20398;-83
2022/12/22 07:37:04;;;;;;;5.75;1.98;;;;;;;;;;5053064;28;20451;-83
2022/12/22 07:39:30;;;;;;;6.40;1.95;;;;;;;;;;5052211;28;20716;-83
2022/12/22 07:44:40;;;;;;;9.38;2.05;;;;;;;;;;5052890;28;20397;-83
2022/12/22 07:47:06;;;;;;;5.00;1.70;;;;;;;;;;5053256;28;20791;-83
2022/12/22 07:52:17;;;;;;;6.40;1.70;;;;;;;;;;5053343;28;20889;-84
2022/12/22 07:54:43;;;;;;;6.07;2.07;;;;;;;;;;5047919;28;20389;-83
2022/12/22 07:57:09;;;;;;;6.28;2.40;;;;;;;;;;5053602;28;20837;-81
2022/12/22 07:59:35;;;;;;;5.30;1.80;;;;;;;;;;5053364;28;20932;-82
2022/12/22 08:02:01;;;;;;;5.97;2.65;;;;;;;;;;5053586;28;20377;-81
2022/12/22 08:04:27;;;;;;;6.80;2.20;;;;;;;;;;5052624;28;20396;-81
2022/12/22 08:06:53;;;;;;;5.50;1.97;;;;;;;;;;5053509;28;20504;-82
2022/12/22 08:09:20;;;;;;;6.80;2.25;;;;;;;;;;5053423;28;20386;-81
2022/12/22 08:11:47;;;;;;;5.60;2.17;;;;;;;;;;5034895;28;20870;-81
2022/12/22 08:14:14;;;;;;;6.87;2.30;;;;;;;;;;5051810;28;20865;-81
2022/12/22 08:16:40;;;;;;;6.75;2.05;;;;;;;;;;5052986;28;20423;-82
2022/12/22 08:19:06;;;;;;;3.50;1.67;;;;;;;;;;5051318;28;20537;-82
2022/12/22 08:21:31;;;;;;;7.32;1.90;;;;;;;;;;5053103;28;20377;-82
2022/12/22 08:23:57;;;;;;;4.70;1.83;;;;;;;;;;5053113;28;20394;-82
2022/12/22 08:26:33;;;;;;;4.87;1.53;;;;;;;;;;5052981;28;20468;-82
2022/12/22 08:29:06;;;;;;;4.70;1.55;;;;;;;;;;5052229;28;20446;-81
2022/12/22 08:31:32;;;;;;;3.73;1.70;;;;;;;;;;5051925;28;20421;-82
2022/12/22 08:33:59;;;;;;;5.43;1.70;;;;;;;;;;5052317;28;20385;-82
2022/12/22 08:36:25;;;;;;;4.25;1.58;;;;;;;;;;5052773;28;20874;-83
2022/12/22 08:38:52;;;;;;;4.63;1.60;;;;;;;;;;5052825;28;20378;-84
2022/12/22 08:41:48;;;;;;;3.28;1.50;;;;;;;;;;5052455;28;20385;-83
2022/12/22 08:44:04;;;;;;;4.23;1.43;;;;;;;;;;5052214;28;20455;-83
2022/12/22 08:46:30;;;;;;;3.75;1.40;;;;;;;;;;5052692;28;20404;-83
2022/12/22 08:48:56;;;;;;;2.75;1.45;;;;;;;;;;5034351;28;20871;-84
2022/12/22 08:51:22;;;;;;;2.60;1.50;;;;;;;;;;5051588;28;20381;-84
2022/12/22 08:53:48;;;;;;;3.60;1.38;;;;;;;;;;5050834;28;20451;-83
2022/12/22 08:56:14;;;;;;;3.67;1.70;;;;;;;;;;5051720;28;20898;-83
2022/12/22 08:58:40;;;;;;;3.47;1.50;;;;;;;;;;5052470;28;20416;-83
2022/12/22 09:01:06;;;;;;;3.45;1.60;;;;;;;;;;5052260;28;20458;-83
2022/12/22 09:03:32;;;;;;;3.28;1.50;;;;;;;;;;5052411;28;20378;-83
2022/12/22 09:06:01;;;;;;;3.95;1.65;;;;;;;;;;5052142;28;20778;-83
2022/12/22 09:08:27;;;;;;;3.35;1.40;;;;;;;;;;5047633;28;21064;-83
2022/12/22 09:10:53;;;;;;;2.65;1.20;;;;;;;;;;5033962;28;20425;-83
2022/12/22 09:13:19;;;;;;;3.95;1.23;;;;;;;;;;5038674;28;20436;-83
2022/12/22 09:15:45;;;;;;;2.70;1.17;;;;;;;;;;5032418;28;20553;-84
2022/12/22 09:18:11;;;;;;;4.00;1.40;;;;;;;;;;5033648;28;20457;-81
2022/12/22 09:20:37;;;;;;;2.80;1.17;;;;;;;;;;5034113;28;20939;-81
2022/12/22 09:23:03;;;;;;;5.63;1.40;;;;;;;;;;5050888;28;20366;-81
2022/12/22 09:25:29;;;;;;;5.15;1.55;;;;;;;;;;5052040;28;20369;-81
2022/12/22 09:27:55;;;;;;;5.45;1.83;;;;;;;;;;5051650;28;20873;-82
2022/12/22 09:30:21;;;;;;;5.80;1.98;;;;;;;;;;5051233;28;20378;-81
2022/12/22 09:32:47;;;;;;;5.85;2.20;;;;;;;;;;5048990;28;20404;-81
2022/12/22 09:35:13;;;;;;;5.38;1.80;;;;;;;;;;5051308;28;20379;-81
2022/12/22 09:37:39;;;;;;;7.70;2.40;;;;;;;;;;5038686;28;20900;-81
2022/12/22 09:40:05;;;;;;;8.68;2.50;;;;;;;;;;5049067;28;20435;-81
2022/12/22 09:42:34;;;;;;;7.05;2.35;;;;;;;;;;5051581;28;20389;-81
2022/12/22 09:45:00;;;;;;;7.23;2.50;;;;;;;;;;5045192;28;20386;-81
2022/12/22 09:47:36;;;;;;;6.95;3.80;;;;;;;;;;5049415;28;20378;-81
2022/12/22 09:50:03;;;;;;;7.23;2.60;;;;;;;;;;5051625;28;20385;-81
2022/12/22 09:52:35;;;;;;;7.25;2.50;;;;;;;;;;5051518;28;20397;-81
2022/12/22 09:55:02;;;;;;;9.27;3.50;;;;;;;;;;5049760;28;20385;-81
2022/12/22 09:57:31;;;;;;;8.85;3.08;;;;;;;;;;5042781;28;20414;-81
2022/12/22 10:00:01;;;;;;;6.10;2.10;;;;;;;;;;5032793;28;20563;-81
2022/12/22 10:02:43;;;;;;;7.13;2.40;;;;;;;;;;5033119;28;20383;-81
2022/12/22 10:05:25;;;;;;;8.32;2.55;;;;;;;;;;5032005;28;20379;-81
2022/12/22 10:07:51;;;;;;;7.13;3.07;;;;;;;;;;5035325;28;20390;-81
2022/12/22 10:10:23;;;;;;;5.97;2.17;;;;;;;;;;5033307;28;20745;-81
2022/12/22 10:12:50;;;;;;;8.37;2.10;;;;;;;;;;5035077;28;20956;-81
2022/12/22 10:15:16;;;;;;;6.72;2.00;;;;;;;;;;5036800;28;20371;-81
2022/12/22 10:17:42;;;;;;;5.15;2.05;;;;;;;;;;5033567;28;20403;-81
2022/12/22 10:20:14;;;;;;;6.20;1.90;;;;;;;;;;5034617;28;20963;-81
2022/12/22 10:22:50;;;;;;;5.55;1.80;;;;;;;;;;5031333;28;20382;-81
2022/12/22 10:25:43;;;;;;;7.13;1.80;;;;;;;;;;5031629;28;20379;-81
2022/12/22 10:28:13;;;;;;;5.03;1.60;;;;;;;;;;5006353;28;20828;-81
2022/12/22 10:30:40;;;;;;;7.22;1.92;;;;;;;;;;5044983;28;20388;-81
2022/12/22 10:33:13;;;;;;;6.15;2.13;;;;;;;;;;5045723;28;20422;-81
2022/12/22 10:35:49;;;;;;;7.78;2.08;;;;;;;;;;5036387;28;20768;-81
2022/12/22 10:38:18;;;;;;;4.57;1.60;;;;;;;;;;5037565;28;20374;-81
2022/12/22 10:40:45;;;;;;;6.53;1.65;;;;;;;;;;5036985;28;20522;-81
2022/12/22 10:43:18;;;;;;;6.40;1.80;;;;;;;;;;5038702;28;20393;-81
2022/12/22 10:45:47;;;;;;;5.15;1.98;;;;;;;;;;5036231;28;20379;-81
2022/12/22 10:48:13;;;;;;;5.53;1.60;;;;;;;;;;5034718;28;20450;-81
2022/12/22 10:50:49;;;;;;;6.18;1.80;;;;;;;;;;5040934;28;20398;-81
2022/12/22 10:53:15;;;;;;;6.15;1.80;;;;;;;;;;5035857;28;20387;-81
2022/12/22 10:55:42;;;;;;;4.72;1.83;;;;;;;;;;5036672;28;20486;-81
2022/12/22 10:58:15;;;;;;;4.40;1.33;;;;;;;;;;5017199;28;20885;-81
2022/12/22 11:00:41;;;;;;;4.60;1.63;;;;;;;;;;5036850;28;20928;-82
2022/12/22 11:03:10;;;;;;;5.82;1.90;;;;;;;;;;5038934;28;20390;-81
2022/12/22 11:05:36;;;;;;;4.90;1.70;;;;;;;;;;5036538;28;20746;-81
2022/12/22 11:08:14;;;;;;;6.90;2.22;;;;;;;;;;5037802;28;20461;-81
2022/12/22 11:10:52;;;;;;;6.57;1.85;;;;;;;;;;5035537;28;20430;-81
2022/12/22 11:13:18;;;;;;;5.80;2.00;;;;;;;;;;5036132;28;20472;-81
2022/12/22 11:15:57;;;;;;;5.80;1.77;;;;;;;;;;5038507;28;20886;-81
2022/12/22 11:18:38;;;;;;;3.95;1.60;;;;;;;;;;5038115;28;20377;-81
2022/12/22 11:21:28;;;;;;;4.05;1.67;;;;;;;;;;5036840;28;20380;-81
2022/12/22 11:24:06;;;;;;;8.75;1.73;;;;;;;;;;5034878;28;20457;-81
2022/12/22 11:26:33;;;;;;;6.45;1.85;;;;;;;;;;5041067;28;20377;-81
2022/12/22 11:29:08;;;;;;;5.00;1.70;;;;;;;;;;5037420;28;20383;-81
2022/12/22 11:31:53;;;;;;;6.13;2.13;;;;;;;;;;5051545;28;20517;-82
2022/12/22 11:34:31;;;;;;;6.88;2.03;;;;;;;;;;5055921;28;20374;-82
2022/12/22 11:37:16;;;;;;;5.25;2.03;;;;;;;;;;5055036;28;20403;-81
2022/12/22 11:39:53;;;;;;;5.18;1.77;;;;;;;;;;5043255;28;20447;-81
2022/12/22 11:42:27;;;;;;;6.43;2.05;;;;;;;;;;5053924;28;20377;-81
2022/12/22 11:45:04;;;;;;;6.13;2.30;;;;;;;;;;5056875;28;20460;-82
2022/12/22 11:47:49;;;;;;;9.02;2.50;;;;;;;;;;5053568;28;20388;-82
2022/12/22 11:50:21;;;;;;;9.73;2.60;;;;;;;;;;5041143;28;20470;-81
2022/12/22 11:53:14;;;;;;;10.07;2.30;;;;;;;;;;5039861;28;20386;-81
2022/12/22 11:55:44;;;;;;;7.70;2.15;;;;;;;;;;5053513;28;20427;-81
2022/12/22 11:58:18;;;;;;;7.60;2.30;;;;;;;;;;5051703;28;20393;-81
2022/12/22 12:00:56;;;;;;;7.65;2.47;;;;;;;;;;5053108;28;20767;-81
2022/12/22 12:03:45;;;;;;;7.97;2.38;;;;;;;;;;5053153;28;21061;-81
2022/12/22 12:06:34;;;;;;;8.27;2.53;;;;;;;;;;5052959;28;20389;-81
2022/12/22 12:09:06;;;;;;;7.78;2.30;;;;;;;;;;5053396;28;20377;-81
2022/12/22 12:11:47;;;;;;;7.93;2.45;;;;;;;;;;5053275;28;20373;-81
2022/12/22 12:14:13;;;;;;;10.40;2.43;;;;;;;;;;5053240;28;20385;-83
2022/12/22 12:16:42;;;;;;;7.43;2.47;;;;;;;;;;5053320;28;20455;-81
2022/12/22 12:19:20;;;;;;;11.02;2.60;;;;;;;;;;5040739;28;20376;-83
2022/12/22 12:21:51;;;;;;;9.95;2.60;;;;;;;;;;5039809;28;20477;-81
2022/12/22 12:24:35;;;;;;;7.32;2.20;;;;;;;;;;5053084;28;20514;-81
2022/12/22 12:27:20;;;;;;;10.77;2.87;;;;;;;;;;5053160;28;20416;-80
2022/12/22 12:30:06;;;;;;;11.30;2.77;;;;;;;;;;5052906;28;20384;-81
2022/12/22 12:32:41;;;;;;;9.35;2.88;;;;;;;;;;5033481;28;20390;-81
2022/12/22 12:35:22;;;;;;;9.35;2.83;;;;;;;;;;5052912;28;20377;-81
2022/12/22 12:37:50;;;;;;;10.70;3.15;;;;;;;;;;5050912;28;20491;-81
2022/12/22 12:40:27;;;;;;;8.20;2.57;;;;;;;;;;5046575;28;20388;-81
2022/12/22 12:42:53;;;;;;;12.70;3.17;;;;;;;;;;5045308;28;20463;-82
2022/12/22 12:45:32;;;;;;;12.98;3.20;;;;;;;;;;5050981;28;20394;-82
2022/12/22 12:48:16;;;;;;;12.07;3.60;;;;;;;;;;5051710;28;20476;-81
2022/12/22 12:50:42;;;;;;;10.20;3.13;;;;;;;;;;5052248;28;20409;-81
2022/12/22 12:53:09;;;;;;;12.60;3.80;;;;;;;;;;5052647;28;20381;-81
2022/12/22 12:55:38;;;;;;;9.88;3.17;;;;;;;;;;5052543;28;20374;-81
2022/12/22 12:58:05;;;;;;;11.98;3.75;;;;;;;;;;5053056;28;20712;-81
2022/12/22 13:00:31;;;;;;;12.57;3.60;;;;;;;;;;5052201;28;20410;-81
2022/12/22 13:02:58;;;;;;;13.43;3.72;;;;;;;;;;5052336;28;20886;-81
2022/12/22 13:05:32;;;;;;;12.97;3.40;;;;;;;;;;5052388;28;20464;-81
2022/12/22 13:08:16;;;;;;;12.38;4.03;;;;;;;;;;5052344;28;20382;-81
2022/12/22 13:10:45;;;;;;;13.30;3.60;;;;;;;;;;5052238;28;20376;-81
2022/12/22 13:13:23;;;;;;;11.98;3.17;;;;;;;;;;5052207;28;20843;-81
2022/12/22 13:16:09;;;;;;;14.23;3.75;;;;;;;;;;5049930;28;20418;-82
2022/12/22 13:18:35;;;;;;;15.33;3.73;;;;;;;;;;5050564;28;20392;-81
2022/12/22 13:21:01;;;;;;;14.55;3.70;;;;;;;;;;5052064;28;20863;-82
2022/12/22 13:23:35;;;;;;;11.75;3.13;;;;;;;;;;5051657;28;20781;-81
2022/12/22 13:26:09;;;;;;;10.33;3.30;;;;;;;;;;5052068;28;20378;-81
2022/12/22 13:28:36;;;;;;;11.02;3.38;;;;;;;;;;5045799;28;20387;-81
2022/12/22 13:31:21;;;;;;;11.40;3.67;;;;;;;;;;5037396;28;20577;-80
2022/12/22 13:33:48;;;;;;;11.45;3.45;;;;;;;;;;5051439;28;20485;-81
2022/12/22 13:36:25;;;;;;;14.00;3.85;;;;;;;;;;5051361;28;20913;-81
2022/12/22 13:39:01;;;;;;;14.73;3.73;;;;;;;;;;5050523;28;20946;-81
2022/12/22 13:41:28;;;;;;;13.15;3.47;;;;;;;;;;5032718;28;20770;-81
2022/12/22 13:43:56;;;;;;;9.52;3.03;;;;;;;;;;5050820;28;20469;-80
2022/12/22 13:46:22;;;;;;;15.75;4.10;;;;;;;;;;5050775;28;20447;-81
2022/12/22 13:48:49;;;;;;;14.07;3.63;;;;;;;;;;5048986;28;20373;-81
2022/12/22 13:51:21;;;;;;;12.07;3.13;;;;;;;;;;5050869;28;20420;-81
2022/12/22 13:53:55;;;;;;;15.45;3.70;;;;;;;;;;5051600;28;20420;-81
2022/12/22 13:56:24;;;;;;;13.95;3.63;;;;;;;;;;5051567;28;20409;-81
2022/12/22 13:58:53;;;;;;;13.82;3.72;;;;;;;;;;5051494;28;20464;-81
2022/12/22 14:01:19;;;;;;;12.75;3.70;;;;;;;;;;5050789;28;20401;-81
2022/12/22 14:03:56;;;;;;;10.90;3.80;;;;;;;;;;5051582;28;20396;-81
2022/12/22 14:06:36;;;;;;;11.73;3.25;;;;;;;;;;5051522;28;20374;-81
2022/12/22 14:09:11;;;;;;;9.25;2.83;;;;;;;;;;5051351;28;20388;-81
2022/12/22 14:11:37;;;;;;;12.23;3.53;;;;;;;;;;5051492;28;20400;-81
2022/12/22 14:14:07;;;;;;;10.37;3.33;;;;;;;;;;5051487;28;20469;-81
2022/12/22 14:16:33;;;;;;;8.07;2.75;;;;;;;;;;5051270;28;20409;-81
2022/12/22 14:19:00;;;;;;;7.28;2.47;;;;;;;;;;5051386;28;20377;-81
2022/12/22 14:21:26;;;;;;;5.05;1.92;;;;;;;;;;5049522;28;20373;-81
2022/12/22 14:23:52;;;;;;;5.05;1.60;;;;;;;;;;5051402;28;20407;-81
2022/12/22 14:26:19;;;;;;;6.22;1.33;;;;;;;;;;5033311;28;20949;-81
2022/12/22 14:28:49;;;;;;;4.03;1.45;;;;;;;;;;5044586;28;20387;-81
2022/12/22 14:31:16;;;;;;;5.53;1.38;;;;;;;;;;5045904;28;20396;-81
2022/12/22 14:33:52;;;;;;;3.88;1.33;;;;;;;;;;5044871;28;20406;-81
2022/12/22 14:36:23;;;;;;;4.57;1.15;;;;;;;;;;5036954;28;20465;-81
2022/12/22 14:38:49;;;;;;;3.88;1.40;;;;;;;;;;5042088;28;20377;-81
2022/12/22 14:41:41;;;;;;;4.63;1.60;;;;;;;;;;5051254;28;20388;-80
2022/12/22 14:44:22;;;;;;;4.05;1.20;;;;;;;;;;5051145;28;20445;-81
2022/12/22 14:47:03;;;;;;;5.45;1.70;;;;;;;;;;5051190;28;20380;-81
2022/12/22 14:49:29;;;;;;;6.88;1.73;;;;;;;;;;5051064;28;20382;-81
2022/12/22 14:51:56;;;;;;;4.88;1.60;;;;;;;;;;5051142;28;20781;-81
2022/12/22 14:54:25;;;;;;;4.28;1.73;;;;;;;;;;5051017;28;20738;-81
2022/12/22 14:56:52;;;;;;;5.10;1.70;;;;;;;;;;5051009;28;20467;-81
2022/12/22 14:59:28;;;;;;;4.35;2.08;;;;;;;;;;5050710;28;20467;-81
2022/12/22 15:02:14;;;;;;;6.18;1.60;;;;;;;;;;5051043;28;20848;-81
2022/12/22 15:04:40;;;;;;;4.38;1.58;;;;;;;;;;5048590;28;20395;-81
2022/12/22 15:07:14;;;;;;;6.57;1.90;;;;;;;;;;5046527;28;20399;-81
2022/12/22 15:09:40;;;;;;;7.40;1.80;;;;;;;;;;5038719;28;20382;-80
2022/12/22 15:12:10;;;;;;;5.30;1.70;;;;;;;;;;5051078;28;20388;-80
2022/12/22 15:14:37;;;;;;;4.20;1.40;;;;;;;;;;5054284;28;20871;-81
2022/12/22 15:17:04;;;;;;;6.07;1.80;;;;;;;;;;5045449;28;20753;-81
2022/12/22 15:19:31;;;;;;;6.03;2.00;;;;;;;;;;5037794;28;20415;-80
2022/12/22 15:21:57;;;;;;;5.07;1.77;;;;;;;;;;5037634;28;20430;-80
2022/12/22 15:24:23;;;;;;;5.03;1.88;;;;;;;;;;5037512;28;20414;-81
2022/12/22 15:26:50;;;;;;;4.18;1.98;;;;;;;;;;5041418;28;20393;-81
2022/12/22 15:29:16;;;;;;;5.20;1.70;;;;;;;;;;5054144;28;20404;-81
2022/12/22 15:31:42;;;;;;;6.13;2.50;;;;;;;;;;5054000;28;20866;-81
2022/12/22 15:34:25;;;;;;;6.40;2.83;;;;;;;;;;5044405;28;20373;-80
2022/12/22 15:36:51;;;;;;;6.78;2.40;;;;;;;;;;5053532;28;20566;-81
2022/12/22 15:39:18;;;;;;;8.43;2.13;;;;;;;;;;5048760;28;20460;-81
2022/12/22 15:41:44;;;;;;;4.72;2.00;;;;;;;;;;5053835;28;20859;-81
2022/12/22 15:44:10;;;;;;;6.43;2.03;;;;;;;;;;5039721;28;20418;-80
2022/12/22 15:46:37;;;;;;;6.53;2.10;;;;;;;;;;5044362;28;20391;-81
2022/12/22 15:49:03;;;;;;;5.25;1.95;;;;;;;;;;5050964;28;20452;-81
2022/12/22 15:51:30;;;;;;;6.40;1.85;;;;;;;;;;5046209;28;20390;-81
2022/12/22 15:53:57;;;;;;;6.70;1.95;;;;;;;;;;5053525;28;20457;-81
2022/12/22 15:56:25;;;;;;;6.93;2.40;;;;;;;;;;5035519;28;20817;-81
2022/12/22 15:58:51;;;;;;;5.15;2.10;;;;;;;;;;5043745;28;20437;-81
2022/12/22 16:01:17;;;;;;;7.87;3.03;;;;;;;;;;5053425;28;20401;-81
2022/12/22 16:03:43;;;;;;;5.78;2.30;;;;;;;;;;5053559;28;20373;-80
2022/12/22 16:06:13;;;;;;;7.75;2.88;;;;;;;;;;5053165;28;20918;-81
2022/12/22 16:08:40;;;;;;;7.30;2.50;;;;;;;;;;5053483;28;20866;-81
2022/12/22 16:11:06;;;;;;;7.43;2.10;;;;;;;;;;5053228;28;20397;-81
2022/12/22 16:13:32;;;;;;;6.15;2.50;;;;;;;;;;5053346;28;20386;-81
2022/12/22 16:15:58;;;;;;;6.32;2.30;;;;;;;;;;5052902;28;20405;-81
2022/12/22 16:18:24;;;;;;;7.77;2.50;;;;;;;;;;5053347;28;20937;-81
2022/12/22 16:20:51;;;;;;;8.40;2.53;;;;;;;;;;5049186;28;20859;-80
2022/12/22 16:23:19;;;;;;;6.57;2.72;;;;;;;;;;5051645;28;20416;-81
2022/12/22 16:25:45;;;;;;;8.43;3.08;;;;;;;;;;5052016;28;20866;-81
2022/12/22 16:28:21;;;;;;;6.90;2.40;;;;;;;;;;5052498;28;20926;-81
2022/12/22 16:30:48;;;;;;;9.10;2.80;;;;;;;;;;5052878;28;20392;-81
2022/12/22 16:33:14;;;;;;;7.13;3.00;;;;;;;;;;5052920;28;20427;-81
2022/12/22 16:35:40;;;;;;;6.65;3.00;;;;;;;;;;5052887;28;20377;-81
2022/12/22 16:38:07;;;;;;;6.70;3.00;;;;;;;;;;5053077;28;20402;-81
2022/12/22 16:40:34;;;;;;;8.85;2.80;;;;;;;;;;5052841;28;21058;-81
2022/12/22 16:43:03;;;;;;;6.60;2.60;;;;;;;;;;5052845;28;20377;-80
2022/12/22 16:45:32;;;;;;;6.88;2.45;;;;;;;;;;5052074;28;20449;-82
2022/12/22 16:47:59;;;;;;;8.13;2.50;;;;;;;;;;5052908;28;20506;-80
2022/12/22 16:50:32;;;;;;;6.97;2.63;;;;;;;;;;5052283;28;20381;-81
2022/12/22 16:52:59;;;;;;;7.95;2.50;;;;;;;;;;5039764;28;20369;-82
2022/12/22 16:55:26;;;;;;;10.45;4.43;;;;;;;;;;5051558;28;20791;-81
2022/12/22 16:57:52;;;;;;;10.35;6.45;;;;;;;;;;5052311;28;20437;-81
2022/12/22 17:00:20;;;;;;;7.23;3.13;;;;;;;;;;5052250;28;20412;-81
2022/12/22 17:02:48;;;;;;;7.15;2.63;;;;;;;;;;5052278;28;20468;-81
2022/12/22 17:05:23;;;;;;;8.65;2.65;;;;;;;;;;5052380;28;20423;-80
2022/12/22 17:07:49;;;;;;;6.03;2.33;;;;;;;;;;5052341;28;20862;-82
2022/12/22 17:10:15;;;;;;;6.93;2.35;;;;;;;;;;5050915;28;20920;-81
2022/12/22 17:12:41;;;;;;;6.53;2.70;;;;;;;;;;5042165;28;20732;-82
2022/12/22 17:15:07;;;;;;;8.38;2.40;;;;;;;;;;5052234;28;20385;-82
2022/12/22 17:17:33;;;;;;;9.07;2.60;;;;;;;;;;5052159;28;20413;-83
2022/12/22 17:19:59;;;;;;;7.57;2.50;;;;;;;;;;5052050;28;20374;-81
2022/12/22 17:22:27;;;;;;;7.43;2.75;;;;;;;;;;5052066;28;20996;-81
2022/12/22 17:24:55;;;;;;;6.85;2.40;;;;;;;;;;5051992;28;20374;-82
2022/12/22 17:27:22;;;;;;;6.03;2.40;;;;;;;;;;5049715;28;20484;-80
2022/12/22 17:29:49;;;;;;;7.78;2.50;;;;;;;;;;5038913;28;20383;-81
2022/12/22 17:32:15;;;;;;;7.10;2.45;;;;;;;;;;5051880;28;20378;-81
2022/12/22 17:34:41;;;;;;;9.38;2.60;;;;;;;;;;5047673;28;20400;-81
2022/12/22 17:37:18;;;;;;;6.70;2.42;;;;;;;;;;5050467;28;20421;-80
2022/12/22 17:39:45;;;;;;;6.82;2.30;;;;;;;;;;5048239;28;20393;-81
2022/12/22 17:42:15;;;;;;;7.78;2.55;;;;;;;;;;5039221;28;20777;-81
2022/12/22 17:44:41;;;;;;;7.90;2.47;;;;;;;;;;5048853;28;20467;-81
2022/12/22 17:47:10;;;;;;;7.63;2.58;;;;;;;;;;5041213;28;20484;-81
2022/12/22 17:49:36;;;;;;;7.43;2.60;;;;;;;;;;5043259;28;20507;-80
2022/12/22 17:52:02;;;;;;;8.25;2.47;;;;;;;;;;5032429;28;20409;-81
2022/12/22 17:54:28;;;;;;;8.48;2.20;;;;;;;;;;5050790;28;20373;-80
2022/12/22 17:56:59;;;;;;;8.80;4.70;;;;;;;;;;5050081;28;20940;-79
2022/12/22 17:59:25;;;;;;;7.90;2.88;;;;;;;;;;5046942;28;20389;-80
2022/12/22 18:01:51;;;;;;;6.70;2.63;;;;;;;;;;5039486;28;20442;-81
2022/12/22 18:04:17;;;;;;;8.43;2.60;;;;;;;;;;5051378;28;20397;-81
2022/12/22 18:06:43;;;;;;;5.65;2.60;;;;;;;;;;5051130;28;20389;-81
2022/12/22 18:09:17;;;;;;;8.27;2.55;;;;;;;;;;5050519;28;20803;-80
2022/12/22 18:11:43;;;;;;;6.47;2.08;;;;;;;;;;5051465;28;20819;-80
2022/12/22 18:14:11;;;;;;;8.52;2.80;;;;;;;;;;5047511;28;20417;-81
2022/12/22 18:16:37;;;;;;;6.30;2.50;;;;;;;;;;5050745;28;20409;-80
2022/12/22 18:19:04;;;;;;;5.68;2.10;;;;;;;;;;5050095;28;20747;-81
2022/12/22 18:21:30;;;;;;;6.13;2.47;;;;;;;;;;5035950;28;20872;-82
2022/12/22 18:23:56;;;;;;;7.50;3.35;;;;;;;;;;5036526;28;20405;-82
2022/12/22 18:26:25;;;;;;;7.50;3.45;;;;;;;;;;5037924;28;20407;-82
2022/12/22 18:28:51;;;;;;;10.50;6.90;;;;;;;;;;5035175;28;20476;-82
2022/12/22 18:31:17;;;;;;;6.72;4.40;;;;;;;;;;5022378;28;20420;-82